sensor_id;sensor_type;location;lat;lon;timestamp;temperature;humidity
26164;DHT22;13914;48.178;11.716;2023-08-24T00:00:05;25.50;4.80
26164;DHT22;13914;48.178;11.716;2023-08-24T00:02:32;25.50;4.90
26164;DHT22;13914;48.178;11.716;2023-08-24T00:04:57;25.40;4.90
26164;DHT22;13914;48.178;11.716;2023-08-24T00:07:23;25.40;5.00
26164;DHT22;13914;48.178;11.716;2023-08-24T00:09:48;25.40;4.80
26164;DHT22;13914;48.178;11.716;2023-08-24T00:12:18;25.30;4.80
26164;DHT22;13914;48.178;11.716;2023-08-24T00:14:43;25.30;4.90
26164;DHT22;13914;48.178;11.716;2023-08-24T00:17:09;25.20;5.00
26164;DHT22;13914;48.178;11.716;2023-08-24T00:19:35;25.20;5.00
26164;DHT22;13914;48.178;11.716;2023-08-24T00:22:01;25.20;5.10
26164;DHT22;13914;48.178;11.716;2023-08-24T00:24:26;25.10;5.00
26164;DHT22;13914;48.178;11.716;2023-08-24T00:26:52;25.10;5.10
26164;DHT22;13914;48.178;11.716;2023-08-24T00:29:18;25.10;5.00
26164;DHT22;13914;48.178;11.716;2023-08-24T00:31:43;25.10;5.10
26164;DHT22;13914;48.178;11.716;2023-08-24T00:34:09;25.00;5.20
26164;DHT22;13914;48.178;11.716;2023-08-24T00:36:34;24.90;5.20
26164;DHT22;13914;48.178;11.716;2023-08-24T00:39:00;24.90;5.30
26164;DHT22;13914;48.178;11.716;2023-08-24T00:41:26;24.90;5.20
26164;DHT22;13914;48.178;11.716;2023-08-24T00:43:51;24.90;5.30
26164;DHT22;13914;48.178;11.716;2023-08-24T00:46:17;24.80;5.20
26164;DHT22;13914;48.178;11.716;2023-08-24T00:48:44;24.80;5.20
26164;DHT22;13914;48.178;11.716;2023-08-24T00:51:09;24.80;5.30
26164;DHT22;13914;48.178;11.716;2023-08-24T00:53:37;24.70;5.40
26164;DHT22;13914;48.178;11.716;2023-08-24T00:56:03;24.70;5.40
26164;DHT22;13914;48.178;11.716;2023-08-24T00:58:29;24.70;5.50
26164;DHT22;13914;48.178;11.716;2023-08-24T01:00:56;24.60;5.50
26164;DHT22;13914;48.178;11.716;2023-08-24T01:03:22;24.60;5.50
26164;DHT22;13914;48.178;11.716;2023-08-24T01:05:49;24.60;5.60
26164;DHT22;13914;48.178;11.716;2023-08-24T01:08:14;24.60;5.60
26164;DHT22;13914;48.178;11.716;2023-08-24T01:13:34;24.50;5.80
26164;DHT22;13914;48.178;11.716;2023-08-24T01:16:16;24.50;5.60
26164;DHT22;13914;48.178;11.716;2023-08-24T01:18:44;24.40;5.60
26164;DHT22;13914;48.178;11.716;2023-08-24T01:21:10;24.40;5.70
26164;DHT22;13914;48.178;11.716;2023-08-24T01:23:41;24.40;5.80
26164;DHT22;13914;48.178;11.716;2023-08-24T01:26:14;24.40;5.80
26164;DHT22;13914;48.178;11.716;2023-08-24T01:28:42;24.30;5.90
26164;DHT22;13914;48.178;11.716;2023-08-24T01:31:09;24.30;6.00
26164;DHT22;13914;48.178;11.716;2023-08-24T01:33:35;24.30;6.10
26164;DHT22;13914;48.178;11.716;2023-08-24T01:36:00;24.20;5.90
26164;DHT22;13914;48.178;11.716;2023-08-24T01:38:26;24.10;6.00
26164;DHT22;13914;48.178;11.716;2023-08-24T01:43:32;24.10;6.00
26164;DHT22;13914;48.178;11.716;2023-08-24T01:46:04;24.10;6.00
26164;DHT22;13914;48.178;11.716;2023-08-24T01:48:30;24.10;6.20
26164;DHT22;13914;48.178;11.716;2023-08-24T01:50:57;24.00;6.20
26164;DHT22;13914;48.178;11.716;2023-08-24T01:53:24;24.00;6.20
26164;DHT22;13914;48.178;11.716;2023-08-24T01:55:51;24.00;6.20
26164;DHT22;13914;48.178;11.716;2023-08-24T01:58:18;23.90;6.20
26164;DHT22;13914;48.178;11.716;2023-08-24T02:00:45;23.90;6.40
26164;DHT22;13914;48.178;11.716;2023-08-24T02:03:10;23.90;6.30
26164;DHT22;13914;48.178;11.716;2023-08-24T02:05:36;23.90;6.40
26164;DHT22;13914;48.178;11.716;2023-08-24T02:08:02;23.80;6.40
26164;DHT22;13914;48.178;11.716;2023-08-24T02:10:28;23.80;6.80
26164;DHT22;13914;48.178;11.716;2023-08-24T02:12:54;23.80;6.50
26164;DHT22;13914;48.178;11.716;2023-08-24T02:15:19;23.70;6.60
26164;DHT22;13914;48.178;11.716;2023-08-24T02:17:45;23.70;6.50
26164;DHT22;13914;48.178;11.716;2023-08-24T02:20:11;23.70;6.50
26164;DHT22;13914;48.178;11.716;2023-08-24T02:22:37;23.60;6.50
26164;DHT22;13914;48.178;11.716;2023-08-24T02:25:04;23.60;6.50
26164;DHT22;13914;48.178;11.716;2023-08-24T02:27:30;23.60;6.60
26164;DHT22;13914;48.178;11.716;2023-08-24T02:29:57;23.50;6.60
26164;DHT22;13914;48.178;11.716;2023-08-24T02:32:22;23.60;6.70
26164;DHT22;13914;48.178;11.716;2023-08-24T02:34:48;23.50;6.80
26164;DHT22;13914;48.178;11.716;2023-08-24T02:37:13;23.50;6.60
26164;DHT22;13914;48.178;11.716;2023-08-24T02:39:39;23.40;6.80
26164;DHT22;13914;48.178;11.716;2023-08-24T02:42:05;23.40;6.70
26164;DHT22;13914;48.178;11.716;2023-08-24T02:44:30;23.40;6.70
26164;DHT22;13914;48.178;11.716;2023-08-24T02:46:56;23.40;6.90
26164;DHT22;13914;48.178;11.716;2023-08-24T02:49:22;23.30;6.80
26164;DHT22;13914;48.178;11.716;2023-08-24T02:51:48;23.30;6.80
26164;DHT22;13914;48.178;11.716;2023-08-24T02:54:14;23.30;6.80
26164;DHT22;13914;48.178;11.716;2023-08-24T02:56:40;23.30;7.00
26164;DHT22;13914;48.178;11.716;2023-08-24T02:59:05;23.20;7.00
26164;DHT22;13914;48.178;11.716;2023-08-24T03:01:31;23.20;7.00
26164;DHT22;13914;48.178;11.716;2023-08-24T03:03:57;23.20;6.90
26164;DHT22;13914;48.178;11.716;2023-08-24T03:06:23;23.20;7.10
26164;DHT22;13914;48.178;11.716;2023-08-24T03:08:51;23.10;7.10
26164;DHT22;13914;48.178;11.716;2023-08-24T03:11:17;23.10;7.10
26164;DHT22;13914;48.178;11.716;2023-08-24T03:13:43;23.10;7.20
26164;DHT22;13914;48.178;11.716;2023-08-24T03:16:08;23.00;7.20
26164;DHT22;13914;48.178;11.716;2023-08-24T03:18:34;23.00;7.20
26164;DHT22;13914;48.178;11.716;2023-08-24T03:21:00;23.00;7.30
26164;DHT22;13914;48.178;11.716;2023-08-24T03:23:26;23.00;7.20
26164;DHT22;13914;48.178;11.716;2023-08-24T03:25:51;22.90;7.50
26164;DHT22;13914;48.178;11.716;2023-08-24T03:28:17;22.90;7.50
26164;DHT22;13914;48.178;11.716;2023-08-24T03:30:47;22.90;7.60
26164;DHT22;13914;48.178;11.716;2023-08-24T03:33:13;22.90;7.40
26164;DHT22;13914;48.178;11.716;2023-08-24T03:35:40;22.80;7.40
26164;DHT22;13914;48.178;11.716;2023-08-24T03:38:05;22.80;7.50
26164;DHT22;13914;48.178;11.716;2023-08-24T03:40:31;22.80;7.50
26164;DHT22;13914;48.178;11.716;2023-08-24T03:42:57;22.80;7.60
26164;DHT22;13914;48.178;11.716;2023-08-24T03:45:22;22.70;7.40
26164;DHT22;13914;48.178;11.716;2023-08-24T03:47:48;22.70;7.50
26164;DHT22;13914;48.178;11.716;2023-08-24T03:50:14;22.70;7.30
26164;DHT22;13914;48.178;11.716;2023-08-24T03:52:40;22.60;7.70
26164;DHT22;13914;48.178;11.716;2023-08-24T03:55:06;22.60;7.40
26164;DHT22;13914;48.178;11.716;2023-08-24T03:57:32;22.60;7.30
26164;DHT22;13914;48.178;11.716;2023-08-24T03:59:58;22.60;7.40
26164;DHT22;13914;48.178;11.716;2023-08-24T04:02:24;22.60;7.40
26164;DHT22;13914;48.178;11.716;2023-08-24T04:04:52;22.50;7.70
26164;DHT22;13914;48.178;11.716;2023-08-24T04:07:18;22.50;7.70
26164;DHT22;13914;48.178;11.716;2023-08-24T04:09:44;22.50;7.70
26164;DHT22;13914;48.178;11.716;2023-08-24T04:12:11;22.50;7.60
26164;DHT22;13914;48.178;11.716;2023-08-24T04:14:36;22.50;7.90
26164;DHT22;13914;48.178;11.716;2023-08-24T04:17:02;22.40;7.60
26164;DHT22;13914;48.178;11.716;2023-08-24T04:19:28;22.40;7.90
26164;DHT22;13914;48.178;11.716;2023-08-24T04:21:54;22.40;7.70
26164;DHT22;13914;48.178;11.716;2023-08-24T04:24:19;22.40;7.80
26164;DHT22;13914;48.178;11.716;2023-08-24T04:26:45;22.40;7.80
26164;DHT22;13914;48.178;11.716;2023-08-24T04:29:11;22.30;7.70
26164;DHT22;13914;48.178;11.716;2023-08-24T04:31:37;22.30;7.80
26164;DHT22;13914;48.178;11.716;2023-08-24T04:34:05;22.30;7.80
26164;DHT22;13914;48.178;11.716;2023-08-24T04:36:31;22.30;7.90
26164;DHT22;13914;48.178;11.716;2023-08-24T04:38:58;22.30;7.80
26164;DHT22;13914;48.178;11.716;2023-08-24T04:41:23;22.20;7.80
26164;DHT22;13914;48.178;11.716;2023-08-24T04:43:49;22.20;7.70
26164;DHT22;13914;48.178;11.716;2023-08-24T04:46:15;22.20;7.90
26164;DHT22;13914;48.178;11.716;2023-08-24T04:48:40;22.10;7.70
26164;DHT22;13914;48.178;11.716;2023-08-24T04:51:06;22.10;7.80
26164;DHT22;13914;48.178;11.716;2023-08-24T04:53:32;22.10;7.90
26164;DHT22;13914;48.178;11.716;2023-08-24T04:55:57;22.10;7.70
26164;DHT22;13914;48.178;11.716;2023-08-24T04:58:23;22.00;7.80
26164;DHT22;13914;48.178;11.716;2023-08-24T05:00:49;22.00;7.70
26164;DHT22;13914;48.178;11.716;2023-08-24T05:03:15;22.00;7.80
26164;DHT22;13914;48.178;11.716;2023-08-24T05:05:41;22.00;7.80
26164;DHT22;13914;48.178;11.716;2023-08-24T05:08:07;22.00;7.90
26164;DHT22;13914;48.178;11.716;2023-08-24T05:10:35;21.90;7.70
26164;DHT22;13914;48.178;11.716;2023-08-24T05:13:01;21.90;7.80
26164;DHT22;13914;48.178;11.716;2023-08-24T05:15:27;21.90;7.70
26164;DHT22;13914;48.178;11.716;2023-08-24T05:17:53;21.90;7.80
26164;DHT22;13914;48.178;11.716;2023-08-24T05:20:20;21.90;7.80
26164;DHT22;13914;48.178;11.716;2023-08-24T05:22:47;21.90;7.50
26164;DHT22;13914;48.178;11.716;2023-08-24T05:25:13;21.90;7.70
26164;DHT22;13914;48.178;11.716;2023-08-24T05:27:41;21.90;7.90
26164;DHT22;13914;48.178;11.716;2023-08-24T05:30:07;21.90;7.80
26164;DHT22;13914;48.178;11.716;2023-08-24T05:32:32;21.90;7.80
26164;DHT22;13914;48.178;11.716;2023-08-24T05:34:59;21.80;8.00
26164;DHT22;13914;48.178;11.716;2023-08-24T05:37:25;21.80;7.80
26164;DHT22;13914;48.178;11.716;2023-08-24T05:39:50;21.80;7.60
26164;DHT22;13914;48.178;11.716;2023-08-24T05:42:16;21.80;7.50
26164;DHT22;13914;48.178;11.716;2023-08-24T05:44:41;21.80;7.50
26164;DHT22;13914;48.178;11.716;2023-08-24T05:47:07;21.80;7.90
26164;DHT22;13914;48.178;11.716;2023-08-24T05:49:33;21.80;7.50
26164;DHT22;13914;48.178;11.716;2023-08-24T05:52:00;21.80;7.50
26164;DHT22;13914;48.178;11.716;2023-08-24T05:54:25;21.80;7.70
26164;DHT22;13914;48.178;11.716;2023-08-24T05:56:51;21.80;7.60
26164;DHT22;13914;48.178;11.716;2023-08-24T05:59:17;21.80;8.00
26164;DHT22;13914;48.178;11.716;2023-08-24T06:01:42;21.80;7.80
26164;DHT22;13914;48.178;11.716;2023-08-24T06:04:08;21.80;8.00
26164;DHT22;13914;48.178;11.716;2023-08-24T06:06:34;21.80;7.90
26164;DHT22;13914;48.178;11.716;2023-08-24T06:09:00;21.80;7.90
26164;DHT22;13914;48.178;11.716;2023-08-24T06:11:26;21.80;7.80
26164;DHT22;13914;48.178;11.716;2023-08-24T06:13:51;21.90;7.90
26164;DHT22;13914;48.178;11.716;2023-08-24T06:16:19;21.90;8.10
26164;DHT22;13914;48.178;11.716;2023-08-24T06:18:45;21.90;8.20
26164;DHT22;13914;48.178;11.716;2023-08-24T06:21:10;21.90;8.30
26164;DHT22;13914;48.178;11.716;2023-08-24T06:23:37;21.90;8.20
26164;DHT22;13914;48.178;11.716;2023-08-24T06:26:03;22.00;8.20
26164;DHT22;13914;48.178;11.716;2023-08-24T06:28:30;22.00;8.50
26164;DHT22;13914;48.178;11.716;2023-08-24T06:30:56;22.00;8.60
26164;DHT22;13914;48.178;11.716;2023-08-24T06:33:26;22.00;8.60
26164;DHT22;13914;48.178;11.716;2023-08-24T06:35:52;22.10;8.50
26164;DHT22;13914;48.178;11.716;2023-08-24T06:38:18;22.10;8.80
26164;DHT22;13914;48.178;11.716;2023-08-24T06:40:44;22.10;9.30
26164;DHT22;13914;48.178;11.716;2023-08-24T06:43:09;22.20;8.90
26164;DHT22;13914;48.178;11.716;2023-08-24T06:45:35;22.20;9.10
26164;DHT22;13914;48.178;11.716;2023-08-24T06:48:01;22.30;9.00
26164;DHT22;13914;48.178;11.716;2023-08-24T06:50:26;22.30;8.90
26164;DHT22;13914;48.178;11.716;2023-08-24T06:52:52;22.30;9.00
26164;DHT22;13914;48.178;11.716;2023-08-24T06:55:18;22.40;9.20
26164;DHT22;13914;48.178;11.716;2023-08-24T06:57:47;22.40;9.20
26164;DHT22;13914;48.178;11.716;2023-08-24T07:00:13;22.50;9.30
26164;DHT22;13914;48.178;11.716;2023-08-24T07:02:40;22.60;9.30
26164;DHT22;13914;48.178;11.716;2023-08-24T07:05:06;22.60;9.20
26164;DHT22;13914;48.178;11.716;2023-08-24T07:07:34;22.70;9.20
26164;DHT22;13914;48.178;11.716;2023-08-24T07:10:00;22.80;9.20
26164;DHT22;13914;48.178;11.716;2023-08-24T07:12:25;22.90;9.60
26164;DHT22;13914;48.178;11.716;2023-08-24T07:14:51;23.00;9.90
26164;DHT22;13914;48.178;11.716;2023-08-24T07:17:17;23.10;10.20
26164;DHT22;13914;48.178;11.716;2023-08-24T07:19:43;23.20;10.10
26164;DHT22;13914;48.178;11.716;2023-08-24T07:22:09;23.30;10.30
26164;DHT22;13914;48.178;11.716;2023-08-24T07:24:34;23.40;10.40
26164;DHT22;13914;48.178;11.716;2023-08-24T07:27:01;23.60;10.40
26164;DHT22;13914;48.178;11.716;2023-08-24T07:29:29;23.70;10.50
26164;DHT22;13914;48.178;11.716;2023-08-24T07:31:54;23.80;10.30
26164;DHT22;13914;48.178;11.716;2023-08-24T07:34:20;24.00;10.40
26164;DHT22;13914;48.178;11.716;2023-08-24T07:36:47;24.10;11.10
26164;DHT22;13914;48.178;11.716;2023-08-24T07:39:14;24.20;10.20
26164;DHT22;13914;48.178;11.716;2023-08-24T07:41:44;24.40;10.20
26164;DHT22;13914;48.178;11.716;2023-08-24T07:44:10;24.50;10.20
26164;DHT22;13914;48.178;11.716;2023-08-24T07:46:36;24.70;10.10
26164;DHT22;13914;48.178;11.716;2023-08-24T07:49:01;24.80;9.90
26164;DHT22;13914;48.178;11.716;2023-08-24T07:51:27;24.90;9.90
26164;DHT22;13914;48.178;11.716;2023-08-24T07:53:53;25.00;9.90
26164;DHT22;13914;48.178;11.716;2023-08-24T07:56:19;25.10;9.60
26164;DHT22;13914;48.178;11.716;2023-08-24T07:58:45;25.20;9.70
26164;DHT22;13914;48.178;11.716;2023-08-24T08:01:11;25.40;9.50
26164;DHT22;13914;48.178;11.716;2023-08-24T08:03:37;25.50;9.40
26164;DHT22;13914;48.178;11.716;2023-08-24T08:06:03;25.60;9.20
26164;DHT22;13914;48.178;11.716;2023-08-24T08:08:30;25.70;9.10
26164;DHT22;13914;48.178;11.716;2023-08-24T08:10:59;25.80;9.00
26164;DHT22;13914;48.178;11.716;2023-08-24T08:13:25;26.00;9.00
26164;DHT22;13914;48.178;11.716;2023-08-24T08:15:51;26.10;8.90
26164;DHT22;13914;48.178;11.716;2023-08-24T08:18:17;26.20;8.90
26164;DHT22;13914;48.178;11.716;2023-08-24T08:20:43;26.30;8.50
26164;DHT22;13914;48.178;11.716;2023-08-24T08:23:08;26.40;8.20
26164;DHT22;13914;48.178;11.716;2023-08-24T08:25:34;26.60;8.70
26164;DHT22;13914;48.178;11.716;2023-08-24T08:27:59;26.70;8.30
26164;DHT22;13914;48.178;11.716;2023-08-24T08:30:25;26.80;8.60
26164;DHT22;13914;48.178;11.716;2023-08-24T08:32:51;26.90;9.00
26164;DHT22;13914;48.178;11.716;2023-08-24T08:35:21;27.10;8.90
26164;DHT22;13914;48.178;11.716;2023-08-24T08:37:47;27.20;8.70
26164;DHT22;13914;48.178;11.716;2023-08-24T08:40:15;27.40;8.80
26164;DHT22;13914;48.178;11.716;2023-08-24T08:42:40;27.50;8.80
26164;DHT22;13914;48.178;11.716;2023-08-24T08:45:09;27.70;8.80
26164;DHT22;13914;48.178;11.716;2023-08-24T08:47:36;27.70;8.80
26164;DHT22;13914;48.178;11.716;2023-08-24T08:50:02;27.90;8.70
26164;DHT22;13914;48.178;11.716;2023-08-24T08:52:29;28.00;8.60
26164;DHT22;13914;48.178;11.716;2023-08-24T08:54:55;28.10;8.40
26164;DHT22;13914;48.178;11.716;2023-08-24T08:57:23;28.30;8.40
26164;DHT22;13914;48.178;11.716;2023-08-24T08:59:50;28.40;8.20
26164;DHT22;13914;48.178;11.716;2023-08-24T09:02:18;28.60;8.40
26164;DHT22;13914;48.178;11.716;2023-08-24T09:04:45;28.70;8.20
26164;DHT22;13914;48.178;11.716;2023-08-24T09:07:14;28.80;8.30
26164;DHT22;13914;48.178;11.716;2023-08-24T09:09:40;29.00;8.10
26164;DHT22;13914;48.178;11.716;2023-08-24T09:12:06;29.00;7.60
26164;DHT22;13914;48.178;11.716;2023-08-24T09:14:35;29.20;7.90
26164;DHT22;13914;48.178;11.716;2023-08-24T09:17:01;29.30;7.40
26164;DHT22;13914;48.178;11.716;2023-08-24T09:19:28;29.40;7.70
26164;DHT22;13914;48.178;11.716;2023-08-24T09:21:58;29.60;7.00
26164;DHT22;13914;48.178;11.716;2023-08-24T09:24:29;29.60;7.20
26164;DHT22;13914;48.178;11.716;2023-08-24T09:26:58;29.80;7.50
26164;DHT22;13914;48.178;11.716;2023-08-24T09:29:24;29.90;7.30
26164;DHT22;13914;48.178;11.716;2023-08-24T09:31:50;30.00;7.30
26164;DHT22;13914;48.178;11.716;2023-08-24T09:34:18;30.10;7.30
26164;DHT22;13914;48.178;11.716;2023-08-24T09:36:45;30.20;7.00
26164;DHT22;13914;48.178;11.716;2023-08-24T09:39:11;30.30;6.70
26164;DHT22;13914;48.178;11.716;2023-08-24T09:41:38;30.40;6.60
26164;DHT22;13914;48.178;11.716;2023-08-24T09:44:05;30.50;6.30
26164;DHT22;13914;48.178;11.716;2023-08-24T09:46:30;30.70;6.50
26164;DHT22;13914;48.178;11.716;2023-08-24T09:48:56;30.80;6.40
26164;DHT22;13914;48.178;11.716;2023-08-24T09:51:25;30.90;6.40
26164;DHT22;13914;48.178;11.716;2023-08-24T09:53:51;30.90;6.50
26164;DHT22;13914;48.178;11.716;2023-08-24T09:56:18;31.00;6.20
26164;DHT22;13914;48.178;11.716;2023-08-24T09:58:45;31.10;6.20
26164;DHT22;13914;48.178;11.716;2023-08-24T10:01:11;31.20;6.00
26164;DHT22;13914;48.178;11.716;2023-08-24T10:03:37;31.20;5.10
26164;DHT22;13914;48.178;11.716;2023-08-24T10:06:05;31.30;4.80
26164;DHT22;13914;48.178;11.716;2023-08-24T10:08:35;31.30;5.10
26164;DHT22;13914;48.178;11.716;2023-08-24T10:11:02;31.40;5.20
26164;DHT22;13914;48.178;11.716;2023-08-24T10:13:35;31.40;5.70
26164;DHT22;13914;48.178;11.716;2023-08-24T10:16:05;31.50;4.90
26164;DHT22;13914;48.178;11.716;2023-08-24T10:18:31;31.50;4.60
26164;DHT22;13914;48.178;11.716;2023-08-24T10:21:01;31.60;4.50
26164;DHT22;13914;48.178;11.716;2023-08-24T10:23:27;31.70;4.20
26164;DHT22;13914;48.178;11.716;2023-08-24T10:25:54;31.70;4.80
26164;DHT22;13914;48.178;11.716;2023-08-24T10:28:20;31.80;4.70
26164;DHT22;13914;48.178;11.716;2023-08-24T10:30:46;31.80;4.40
26164;DHT22;13914;48.178;11.716;2023-08-24T10:33:13;31.80;4.60
26164;DHT22;13914;48.178;11.716;2023-08-24T10:35:39;31.90;4.60
26164;DHT22;13914;48.178;11.716;2023-08-24T10:38:05;32.00;4.60
26164;DHT22;13914;48.178;11.716;2023-08-24T10:40:32;32.10;4.80
26164;DHT22;13914;48.178;11.716;2023-08-24T10:43:04;32.10;4.40
26164;DHT22;13914;48.178;11.716;2023-08-24T10:45:53;32.20;3.90
26164;DHT22;13914;48.178;11.716;2023-08-24T10:48:21;32.30;4.00
26164;DHT22;13914;48.178;11.716;2023-08-24T10:53:39;32.30;4.90
26164;DHT22;13914;48.178;11.716;2023-08-24T10:56:12;32.50;4.40
26164;DHT22;13914;48.178;11.716;2023-08-24T10:58:41;32.50;4.30
26164;DHT22;13914;48.178;11.716;2023-08-24T11:01:14;32.60;4.10
26164;DHT22;13914;48.178;11.716;2023-08-24T11:03:49;32.70;4.40
26164;DHT22;13914;48.178;11.716;2023-08-24T11:06:19;32.70;3.90
26164;DHT22;13914;48.178;11.716;2023-08-24T11:09:05;32.80;3.90
26164;DHT22;13914;48.178;11.716;2023-08-24T11:11:41;32.90;3.80
26164;DHT22;13914;48.178;11.716;2023-08-24T11:16:47;33.00;3.70
26164;DHT22;13914;48.178;11.716;2023-08-24T11:19:14;33.10;3.60
26164;DHT22;13914;48.178;11.716;2023-08-24T11:21:41;33.20;2.90
26164;DHT22;13914;48.178;11.716;2023-08-24T11:24:08;33.20;3.20
26164;DHT22;13914;48.178;11.716;2023-08-24T11:26:38;33.30;3.20
26164;DHT22;13914;48.178;11.716;2023-08-24T11:29:05;33.40;3.30
26164;DHT22;13914;48.178;11.716;2023-08-24T11:31:31;33.40;3.50
26164;DHT22;13914;48.178;11.716;2023-08-24T11:33:57;33.40;3.50
26164;DHT22;13914;48.178;11.716;2023-08-24T11:36:23;33.50;3.30
26164;DHT22;13914;48.178;11.716;2023-08-24T11:38:51;33.60;3.30
26164;DHT22;13914;48.178;11.716;2023-08-24T11:41:18;33.70;3.20
26164;DHT22;13914;48.178;11.716;2023-08-24T11:43:44;33.70;3.40
26164;DHT22;13914;48.178;11.716;2023-08-24T11:46:12;33.70;1.70
26164;DHT22;13914;48.178;11.716;2023-08-24T11:48:39;33.80;3.20
26164;DHT22;13914;48.178;11.716;2023-08-24T11:51:08;33.80;2.60
26164;DHT22;13914;48.178;11.716;2023-08-24T11:53:44;33.90;1.70
26164;DHT22;13914;48.178;11.716;2023-08-24T11:56:12;33.90;2.30
26164;DHT22;13914;48.178;11.716;2023-08-24T11:58:39;34.00;2.70
26164;DHT22;13914;48.178;11.716;2023-08-24T12:01:05;34.00;2.70
26164;DHT22;13914;48.178;11.716;2023-08-24T12:03:32;34.10;2.60
26164;DHT22;13914;48.178;11.716;2023-08-24T12:06:01;34.10;2.70
26164;DHT22;13914;48.178;11.716;2023-08-24T12:08:28;34.10;2.60
26164;DHT22;13914;48.178;11.716;2023-08-24T12:10:54;34.20;2.80
26164;DHT22;13914;48.178;11.716;2023-08-24T12:13:20;34.20;2.80
26164;DHT22;13914;48.178;11.716;2023-08-24T12:15:46;34.30;2.60
26164;DHT22;13914;48.178;11.716;2023-08-24T12:18:12;34.30;2.70
26164;DHT22;13914;48.178;11.716;2023-08-24T12:20:41;34.40;2.40
26164;DHT22;13914;48.178;11.716;2023-08-24T12:23:07;34.40;2.10
26164;DHT22;13914;48.178;11.716;2023-08-24T12:25:37;34.40;2.20
26164;DHT22;13914;48.178;11.716;2023-08-24T12:28:15;34.50;2.40
26164;DHT22;13914;48.178;11.716;2023-08-24T12:30:48;34.50;1.00
26164;DHT22;13914;48.178;11.716;2023-08-24T12:33:22;34.50;1.70
26164;DHT22;13914;48.178;11.716;2023-08-24T12:35:51;34.60;1.90
26164;DHT22;13914;48.178;11.716;2023-08-24T12:38:17;34.60;2.00
26164;DHT22;13914;48.178;11.716;2023-08-24T12:40:43;34.60;2.20
26164;DHT22;13914;48.178;11.716;2023-08-24T12:43:08;34.60;1.90
26164;DHT22;13914;48.178;11.716;2023-08-24T12:45:34;34.70;2.00
26164;DHT22;13914;48.178;11.716;2023-08-24T12:48:01;34.70;1.30
26164;DHT22;13914;48.178;11.716;2023-08-24T12:50:27;34.70;1.40
26164;DHT22;13914;48.178;11.716;2023-08-24T12:52:53;34.70;1.80
26164;DHT22;13914;48.178;11.716;2023-08-24T12:55:21;34.80;1.60
26164;DHT22;13914;48.178;11.716;2023-08-24T12:57:47;34.80;1.00
26164;DHT22;13914;48.178;11.716;2023-08-24T13:00:14;34.80;1.20
26164;DHT22;13914;48.178;11.716;2023-08-24T13:02:39;34.90;1.10
26164;DHT22;13914;48.178;11.716;2023-08-24T13:05:05;34.90;1.00
26164;DHT22;13914;48.178;11.716;2023-08-24T13:07:32;34.90;1.00
26164;DHT22;13914;48.178;11.716;2023-08-24T13:09:57;35.00;1.60
26164;DHT22;13914;48.178;11.716;2023-08-24T13:12:23;35.00;1.70
26164;DHT22;13914;48.178;11.716;2023-08-24T13:14:49;35.00;1.60
26164;DHT22;13914;48.178;11.716;2023-08-24T13:17:15;35.00;1.70
26164;DHT22;13914;48.178;11.716;2023-08-24T13:19:41;35.10;1.70
26164;DHT22;13914;48.178;11.716;2023-08-24T13:22:06;35.00;1.00
26164;DHT22;13914;48.178;11.716;2023-08-24T13:24:33;35.10;1.00
26164;DHT22;13914;48.178;11.716;2023-08-24T13:26:59;35.10;1.00
26164;DHT22;13914;48.178;11.716;2023-08-24T13:29:25;35.10;1.10
26164;DHT22;13914;48.178;11.716;2023-08-24T13:31:51;35.10;1.00
26164;DHT22;13914;48.178;11.716;2023-08-24T13:34:17;35.10;1.20
26164;DHT22;13914;48.178;11.716;2023-08-24T13:36:43;35.10;1.10
26164;DHT22;13914;48.178;11.716;2023-08-24T13:39:08;35.10;1.00
26164;DHT22;13914;48.178;11.716;2023-08-24T13:41:36;35.20;1.00
26164;DHT22;13914;48.178;11.716;2023-08-24T13:44:02;35.20;1.00
26164;DHT22;13914;48.178;11.716;2023-08-24T13:46:28;35.20;1.00
26164;DHT22;13914;48.178;11.716;2023-08-24T13:48:53;35.20;1.00
26164;DHT22;13914;48.178;11.716;2023-08-24T13:51:19;35.20;1.00
26164;DHT22;13914;48.178;11.716;2023-08-24T13:53:45;35.20;1.00
26164;DHT22;13914;48.178;11.716;2023-08-24T13:56:10;35.20;1.00
26164;DHT22;13914;48.178;11.716;2023-08-24T13:58:36;35.20;1.00
26164;DHT22;13914;48.178;11.716;2023-08-24T14:01:02;35.20;1.00
26164;DHT22;13914;48.178;11.716;2023-08-24T14:03:28;35.20;1.00
26164;DHT22;13914;48.178;11.716;2023-08-24T14:05:54;35.10;1.00
26164;DHT22;13914;48.178;11.716;2023-08-24T14:08:21;35.20;1.00
26164;DHT22;13914;48.178;11.716;2023-08-24T14:10:46;35.20;1.00
26164;DHT22;13914;48.178;11.716;2023-08-24T14:13:14;35.10;1.00
26164;DHT22;13914;48.178;11.716;2023-08-24T14:15:40;35.10;1.00
26164;DHT22;13914;48.178;11.716;2023-08-24T14:18:06;35.10;1.00
26164;DHT22;13914;48.178;11.716;2023-08-24T14:20:33;35.10;1.00
26164;DHT22;13914;48.178;11.716;2023-08-24T14:22:59;35.10;1.00
26164;DHT22;13914;48.178;11.716;2023-08-24T14:25:24;35.10;1.00
26164;DHT22;13914;48.178;11.716;2023-08-24T14:27:50;35.00;1.00
26164;DHT22;13914;48.178;11.716;2023-08-24T14:30:15;35.00;1.00
26164;DHT22;13914;48.178;11.716;2023-08-24T14:32:41;35.00;1.00
26164;DHT22;13914;48.178;11.716;2023-08-24T14:35:07;35.00;1.00
26164;DHT22;13914;48.178;11.716;2023-08-24T14:37:33;35.00;1.00
26164;DHT22;13914;48.178;11.716;2023-08-24T14:39:59;35.00;1.00
26164;DHT22;13914;48.178;11.716;2023-08-24T14:42:24;34.90;1.00
26164;DHT22;13914;48.178;11.716;2023-08-24T14:44:50;34.90;1.00
26164;DHT22;13914;48.178;11.716;2023-08-24T14:47:16;34.90;1.00
26164;DHT22;13914;48.178;11.716;2023-08-24T14:49:41;34.80;1.00
26164;DHT22;13914;48.178;11.716;2023-08-24T14:52:07;34.90;1.00
26164;DHT22;13914;48.178;11.716;2023-08-24T14:54:33;34.80;1.00
26164;DHT22;13914;48.178;11.716;2023-08-24T14:56:58;34.80;1.00
26164;DHT22;13914;48.178;11.716;2023-08-24T14:59:25;34.80;1.00
26164;DHT22;13914;48.178;11.716;2023-08-24T15:01:51;34.80;1.00
26164;DHT22;13914;48.178;11.716;2023-08-24T15:04:17;34.70;1.00
26164;DHT22;13914;48.178;11.716;2023-08-24T15:06:43;34.70;1.00
26164;DHT22;13914;48.178;11.716;2023-08-24T15:09:08;34.70;1.00
26164;DHT22;13914;48.178;11.716;2023-08-24T15:11:35;34.70;1.00
26164;DHT22;13914;48.178;11.716;2023-08-24T15:14:00;34.60;1.00
26164;DHT22;13914;48.178;11.716;2023-08-24T15:16:26;34.60;1.00
26164;DHT22;13914;48.178;11.716;2023-08-24T15:18:52;34.60;1.00
26164;DHT22;13914;48.178;11.716;2023-08-24T15:21:17;34.60;1.00
26164;DHT22;13914;48.178;11.716;2023-08-24T15:23:43;34.60;1.00
26164;DHT22;13914;48.178;11.716;2023-08-24T15:26:09;34.50;1.00
26164;DHT22;13914;48.178;11.716;2023-08-24T15:28:35;34.50;1.00
26164;DHT22;13914;48.178;11.716;2023-08-24T15:31:02;34.50;1.00
26164;DHT22;13914;48.178;11.716;2023-08-24T15:33:28;34.40;1.00
26164;DHT22;13914;48.178;11.716;2023-08-24T15:35:54;34.40;1.00